Aérodrome :
LOGIN :

S'inscrire | Disclaimer

   EN    FR    IT 

 










Légende :    VFR   VFR Marginal   IFR   IFR Intensif   IFR Très Intensif
Visi : 
Plafond : 
>= 8 km
>= 3000ft
5 à 8 km
1000 à 3000 ft
1500m à 5 km
500 à 1000 ft
800 à 1500m
200 à 500 ft
< 800m
< 200 ft
Symboles :   Orages  Brouillard  Fortes neiges  Fortes précipitations  Vent > 20 kt
SIGMETs :   Divers  Orages  Givrage  Turbulence  Onde Orograph.  Cendres Volcan.






- Altitude de l'aérodrome : 1906 ft
- Code IATA : INN


LOWI - Innsbruck

DERNIER METAR :
  • 210820Z VRB01KT 8000 FEW003 BKN006 02/01 Q1010 BECMG FEW003 BKN100

METARs EXPIRÉS :
  • 210750Z 27005KT 6000 FEW002 BKN004 01/01 Q1010 BECMG FEW003 BKN100
  • 210720Z VRB02KT 5000 BR FEW002 OVC003 01/01 Q1010 NOSIG
  • 210650Z VRB02KT 4000 BR FEW002 OVC003 01/00 Q1010 TEMPO 6000 NSW
  • 210620Z VRB02KT 6000 FEW002 OVC003 01/00 Q1010 NOSIG
  • 210550Z 25004KT 210V280 8000 FEW002 OVC003 01/00 Q1010 NOSIG

TAF AMD TAF LOWI
Valide du 21 à 08h jusqu'au 22 à 06h UTC


210819Z 2108/2206 27003KT 9999 FEW002 BKN004 TX09/2114Z TN02/2108Z
TEMPO 2108/2110 FEW002 BKN007
BECMG 2108/2110 FEW015 SCT100
PROB40 2120/2206 BKN007



MET'MAP, la Météo Aéronautique d'un coup d'oeil ! - Copyright ORBIFLY Décembre 2007 - Disclaimer

ORBIFLY MET'MAP TEAM :

Programmation & Développement : Alexandra Zaïnal
Conception & Développement : Baudouin d'Aumeries
Co-Programmation & Développement : Marc-Olivier Méhu
Soutien technique & logistique : Manuel Goepfert

Contact : metmap@orbifly.com




SOURCES & CREDITS :

   NOAA